< Cyclone 201907 2019 Season Cyclone 201914 >
Cyclone 201912 (Riley)
General InformationTrack Information on Google MapsDetailed Wind InformationList of All Images || ResourceGoogle EarthGE AnimationAtom FeedGeoJSON
Detalied Best Track (Time Zone = UTC)
Year Month Day Hour Lat. Long. Pressure (hPa) Wind (kt) Class Image Chart
2019 1 21 00 -8.8 128.4 1006 15 2 Image --
2019 1 21 06 -9.5 128.4 1004 15 2 Image --
2019 1 21 12 -10.0 128.4 1004 15 2 Image --
2019 1 21 18 -10.4 127.7 1004 15 2 Image --
2019 1 22 00 -10.7 126.6 1004 20 2 Image --
2019 1 22 06 -11.2 126.1 1000 20 2 Image --
2019 1 22 12 -12.2 125.3 1000 20 2 Image --
2019 1 22 18 -12.9 124.2 998 25 2 Image --
2019 1 23 00 -13.7 124.2 998 25 2 Image --
2019 1 23 06 -14.4 123.3 998 25 2 Image --
2019 1 23 12 -15.6 122.7 996 25 2 Image --
2019 1 23 18 -16.5 121.7 995 30 2 Image --
2019 1 24 00 -16.8 120.8 992 40 3 Image --
2019 1 24 06 -16.9 120.0 990 45 3 Image --
2019 1 24 12 -16.6 119.4 990 45 3 Image --
2019 1 24 18 -16.5 119.1 985 50 4 Image --
2019 1 25 00 -16.5 118.8 982 50 4 Image --
2019 1 25 06 -16.7 118.3 983 50 4 Image --
2019 1 25 12 -16.8 118.0 981 50 4 Image --
2019 1 25 18 -16.6 117.6 982 50 4 Image --
2019 1 26 00 -16.9 117.4 977 65 5 Image --
2019 1 26 06 -17.4 117.1 982 55 4 Image --
2019 1 26 12 -17.6 116.3 983 50 4 Image --
2019 1 26 18 -17.3 115.4 983 55 4 Image --
2019 1 27 00 -17.4 114.6 974 65 5 Image --
2019 1 27 06 -17.5 113.7 975 65 5 Image --
2019 1 27 12 -17.8 112.7 974 65 5 Image --
2019 1 27 18 -17.9 111.7 975 65 5 Image --
2019 1 28 00 -18.0 110.5 974 65 5 Image --
2019 1 28 06 -18.1 109.6 974 65 5 Image --
2019 1 28 12 -18.4 108.9 982 55 4 Image --
2019 1 28 18 -18.5 108.1 986 50 4 Image --
2019 1 29 00 -18.8 107.3 991 45 3 Image --
2019 1 29 06 -19.2 106.3 990 45 3 Image --
2019 1 29 12 -19.4 105.5 993 40 3 Image --
2019 1 29 18 -19.6 104.3 995 35 3 Image --
2019 1 30 00 -20.0 103.2 995 35 3 Image --
2019 1 30 06 -20.2 102.2 995 35 3 Image --
2019 1 30 12 -20.1 101.4 995 35 3 Image --
2019 1 30 18 -20.2 100.5 995 35 3 Image --
2019 1 31 00 -20.5 99.6 996 30 2 Image --
2019 1 31 06 -20.3 98.7 996 30 2 Image --
2019 1 31 12 -20.0 98.1 998 30 2 Image --
2019 1 31 18 -19.7 97.5 998 30 2 Image --
2019 2 1 00 -19.2 97.1 1000 30 2 Image --
2019 2 1 06 -19.3 96.7 1000 30 2 Image --
2019 2 1 12 -19.1 96.2 1000 30 2 Image --
2019 2 1 18 -19.0 95.7 1000 30 2 Image --
2019 2 2 00 -18.9 95.1 1000 30 2 Image --
2019 2 2 06 -18.9 94.3 1000 30 2 Image --
2019 2 2 12 -19.1 93.5 1002 30 2 Image --
< Cyclone 201907 2019 Season Cyclone 201914 >

Help